Time;durP1;ratioP1;P1;durP2;ratioP2;P2;SDS_P1;SDS_P2;PMS_P1;PMS_P2;Temp;Humidity;BMP_temperature;BMP_pressure;BME280_temperature;BME280_humidity;BME280_pressure;Samples;Min_cycle;Max_cycle;Signal;HPM_P1;HPM_P2
2021/09/08 00:01:28;;;;;;;8.63;7.38;;;;;;;22.02;57.56;102110.72;5022964;28;20037;-81
2021/09/08 00:03:53;;;;;;;7.95;7.15;;;;;;;22.00;57.36;102103.69;5023550;28;20025;-80
2021/09/08 00:06:18;;;;;;;7.57;6.78;;;;;;;21.89;57.50;102087.88;5005171;28;20033;-81
2021/09/08 00:08:44;;;;;;;8.45;7.13;;;;;;;21.90;57.28;102079.09;5023467;28;20025;-81
2021/09/08 00:11:09;;;;;;;8.40;7.50;;;;;;;22.00;57.57;102094.03;5006250;28;20037;-80
2021/09/08 00:13:35;;;;;;;8.48;7.10;;;;;;;22.00;57.28;102087.91;5023088;28;20075;-80
2021/09/08 00:16:00;;;;;;;6.88;6.15;;;;;;;21.99;57.33;102091.41;5018984;28;20030;-81
2021/09/08 00:18:26;;;;;;;8.27;7.47;;;;;;;22.01;56.96;102090.53;5004553;28;20037;-79
2021/09/08 00:20:51;;;;;;;9.00;8.07;;;;;;;21.96;57.45;102081.72;5000476;28;20038;-82
2021/09/08 00:23:16;;;;;;;7.68;6.28;;;;;;;21.99;57.33;102086.13;5006310;28;20026;-81
2021/09/08 00:25:42;;;;;;;8.60;7.45;;;;;;;22.00;57.36;102072.97;5022539;28;20049;-81
2021/09/08 00:28:07;;;;;;;8.13;7.32;;;;;;;22.00;57.22;102078.25;5005105;28;20030;-81
2021/09/08 00:30:33;;;;;;;7.25;6.55;;;;;;;21.97;57.30;102067.66;5003982;28;20041;-80
2021/09/08 00:32:59;;;;;;;9.85;8.10;;;;;;;21.98;57.14;102063.28;5019130;28;20041;-80
2021/09/08 00:35:24;;;;;;;7.45;6.55;;;;;;;21.90;57.28;102046.59;5005025;28;20061;-80
2021/09/08 00:37:53;;;;;;;7.43;6.63;;;;;;;21.88;57.25;102043.97;5006675;28;20586;-81
2021/09/08 00:40:18;;;;;;;8.25;7.45;;;;;;;21.96;57.17;102060.63;4989600;28;20029;-82
2021/09/08 00:42:44;;;;;;;8.88;7.97;;;;;;;21.87;57.05;102039.56;4989565;28;20044;-79
2021/09/08 00:45:12;;;;;;;9.20;8.30;;;;;;;21.89;57.27;102036.94;5022957;28;20033;-80
2021/09/08 00:47:38;;;;;;;7.95;7.00;;;;;;;21.84;57.12;102021.13;5006123;28;20071;-80
2021/09/08 00:50:04;;;;;;;8.25;7.45;;;;;;;21.99;57.11;102047.50;5005304;28;20033;-80
2021/09/08 00:52:29;;;;;;;7.70;6.72;;;;;;;21.82;57.20;102016.75;5005408;28;20033;-79
2021/09/08 00:54:56;;;;;;;7.70;6.90;;;;;;;21.88;57.31;102017.63;5004808;28;20037;-79
2021/09/08 00:57:21;;;;;;;7.15;6.43;;;;;;;22.00;57.06;102045.75;5005628;28;20495;-80
2021/09/08 00:59:48;;;;;;;7.15;6.43;;;;;;;21.97;57.09;102035.19;5004830;28;20087;-80
2021/09/08 01:02:13;;;;;;;7.18;6.22;;;;;;;21.98;57.20;102042.19;5021632;28;20025;-80
2021/09/08 01:04:39;;;;;;;8.05;7.20;;;;;;;21.95;57.17;102031.66;5005333;28;20034;-80
2021/09/08 01:07:06;;;;;;;7.65;6.82;;;;;;;21.98;57.15;102034.31;5004019;28;20044;-80
2021/09/08 01:09:32;;;;;;;8.10;7.30;;;;;;;21.99;57.20;102041.34;5001798;28;20484;-80
2021/09/08 01:11:58;;;;;;;7.03;6.20;;;;;;;21.89;57.11;102021.16;5000320;28;20475;-80
2021/09/08 01:14:24;;;;;;;7.25;6.53;;;;;;;21.91;57.15;102025.53;5020932;28;20048;-83
2021/09/08 01:16:55;;;;;;;8.05;6.75;;;;;;;21.99;57.08;102042.25;5021612;28;20025;-79
2021/09/08 01:19:20;;;;;;;8.23;7.40;;;;;;;21.99;57.13;102036.09;5023217;28;20030;-88
2021/09/08 01:21:46;;;;;;;8.98;8.07;;;;;;;21.87;56.92;102018.50;5006762;28;20048;-81
2021/09/08 01:24:12;;;;;;;10.05;8.75;;;;;;;21.94;57.14;102027.31;5006057;28;20030;-80
2021/09/08 01:26:39;;;;;;;7.20;6.13;;;;;;;21.97;57.09;102029.91;5022860;28;20033;-82
2021/09/08 01:29:06;;;;;;;7.82;6.95;;;;;;;21.96;57.14;102025.50;5019777;28;20057;-82
2021/09/08 01:31:31;;;;;;;8.88;7.97;;;;;;;21.79;57.18;101999.22;5012059;28;20045;-80
2021/09/08 01:33:57;;;;;;;7.70;5.93;;;;;;;21.97;57.03;102029.91;4992774;28;20025;-80
2021/09/08 01:36:22;;;;;;;7.63;6.75;;;;;;;21.99;57.07;102028.19;5021665;28;20472;-80
2021/09/08 01:38:48;;;;;;;6.85;6.15;;;;;;;21.94;57.04;102020.25;5022615;28;20073;-81
2021/09/08 01:41:13;;;;;;;9.05;7.22;;;;;;;21.85;57.21;102009.72;5021496;28;20092;-79
2021/09/08 01:43:38;;;;;;;7.90;7.03;;;;;;;21.80;56.99;102002.72;5022298;28;20026;-80
2021/09/08 01:46:04;;;;;;;7.70;6.90;;;;;;;21.96;57.06;102033.41;5015027;28;20048;-79
2021/09/08 01:48:29;;;;;;;6.25;5.50;;;;;;;21.96;57.02;102031.66;5004316;28;20069;-79
2021/09/08 01:50:58;;;;;;;8.20;6.68;;;;;;;21.85;57.08;102008.84;5022384;28;20029;-81
2021/09/08 01:53:23;;;;;;;7.32;6.57;;;;;;;21.97;57.03;102035.19;5017998;28;20064;-82
2021/09/08 01:55:50;;;;;;;7.38;6.53;;;;;;;21.91;56.90;102025.53;5002927;28;20029;-80
2021/09/08 01:58:16;;;;;;;7.70;6.93;;;;;;;21.72;56.94;101985.16;5021251;28;20025;-81
2021/09/08 02:00:42;;;;;;;7.38;6.60;;;;;;;21.95;56.87;102029.03;5021215;28;20032;-80
2021/09/08 02:03:08;;;;;;;7.75;6.95;;;;;;;21.96;56.92;102025.50;5021856;28;20068;-82
2021/09/08 02:05:33;;;;;;;7.15;6.45;;;;;;;21.94;56.87;102016.78;5021428;28;20087;-80
2021/09/08 02:07:59;;;;;;;7.70;6.90;;;;;;;21.70;56.82;101973.75;4987970;28;20036;-80
2021/09/08 02:10:24;;;;;;;7.82;6.88;;;;;;;21.92;56.73;102016.75;5021303;28;20108;-80
2021/09/08 02:12:50;;;;;;;7.20;6.50;;;;;;;21.95;56.78;102024.63;5004455;28;20550;-80
2021/09/08 02:15:15;;;;;;;8.35;7.40;;;;;;;21.87;56.70;102001.84;5002040;28;20089;-80
2021/09/08 02:17:42;;;;;;;7.47;6.70;;;;;;;21.83;56.69;102000.06;5002230;28;20025;-80
2021/09/08 02:20:08;;;;;;;7.10;6.30;;;;;;;21.86;56.86;101997.44;5020898;28;20017;-80
2021/09/08 02:22:33;;;;;;;8.63;7.15;;;;;;;21.80;56.60;101989.56;5036450;28;20026;-80
2021/09/08 02:24:59;;;;;;;8.15;7.35;;;;;;;21.82;56.71;101990.41;5001428;28;20431;-80
2021/09/08 02:27:24;;;;;;;8.68;7.70;;;;;;;21.91;56.64;102000.97;4997733;28;20037;-80
2021/09/08 02:29:50;;;;;;;8.13;7.13;;;;;;;21.94;56.61;102019.41;5019810;28;20028;-80
2021/09/08 02:32:16;;;;;;;8.32;7.43;;;;;;;21.95;56.61;102013.22;5019022;28;20036;-80
2021/09/08 02:34:41;;;;;;;7.30;6.40;;;;;;;21.84;56.33;101994.81;5008155;28;20492;-81
2021/09/08 02:37:07;;;;;;;8.70;7.07;;;;;;;21.90;56.33;101999.19;5018591;28;19909;-85
2021/09/08 02:39:34;;;;;;;7.85;7.05;;;;;;;21.85;56.58;101985.16;5035575;28;20025;-81
2021/09/08 02:42:00;;;;;;;8.18;6.55;;;;;;;21.90;56.59;101993.94;5019098;28;20067;-81
2021/09/08 02:44:25;;;;;;;8.80;7.05;;;;;;;21.94;56.29;101996.53;5018357;28;20124;-81
2021/09/08 02:46:50;;;;;;;8.70;7.88;;;;;;;21.86;56.48;101979.88;4997286;28;20179;-81
2021/09/08 02:49:16;;;;;;;7.80;6.97;;;;;;;21.76;56.26;101967.63;5019847;28;20033;-81
2021/09/08 02:51:41;;;;;;;7.88;7.07;;;;;;;21.81;56.34;101967.63;5000677;28;20096;-80
2021/09/08 02:54:06;;;;;;;8.70;7.68;;;;;;;21.80;56.36;101958.84;4981706;28;20045;-80
2021/09/08 02:56:32;;;;;;;7.88;6.32;;;;;;;21.84;56.30;101965.84;5000861;28;20036;-81
2021/09/08 02:58:57;;;;;;;8.27;7.45;;;;;;;21.93;56.32;101984.28;4983500;28;20029;-81
2021/09/08 03:01:22;;;;;;;8.65;7.75;;;;;;;21.93;56.13;101986.03;4987741;28;20064;-81
2021/09/08 03:03:48;;;;;;;7.45;6.63;;;;;;;21.82;56.26;101967.59;5019664;28;20090;-80
2021/09/08 03:06:13;;;;;;;7.85;6.28;;;;;;;21.92;56.46;101990.44;5020286;28;20036;-80
2021/09/08 03:08:38;;;;;;;7.40;6.32;;;;;;;21.93;56.08;101993.94;5019829;28;20472;-80
2021/09/08 03:11:04;;;;;;;9.07;7.90;;;;;;;21.81;56.31;101973.72;4987908;28;20098;-80
2021/09/08 03:13:29;;;;;;;7.07;6.38;;;;;;;21.81;56.05;101960.56;5003221;28;20030;-80
2021/09/08 03:15:55;;;;;;;7.47;6.68;;;;;;;21.90;56.32;101981.66;5035995;28;20468;-80
2021/09/08 03:18:20;;;;;;;8.52;7.70;;;;;;;21.90;55.99;101979.00;5002857;28;20496;-80
2021/09/08 03:20:46;;;;;;;7.65;6.80;;;;;;;21.87;55.93;101972.88;5019240;28;20080;-80
2021/09/08 03:23:11;;;;;;;9.27;7.60;;;;;;;21.91;55.74;101974.63;5021150;28;20013;-81
2021/09/08 03:25:37;;;;;;;11.05;7.68;;;;;;;21.91;55.46;101977.25;4986004;28;20035;-80
2021/09/08 03:28:06;;;;;;;8.77;7.75;;;;;;;21.87;55.29;101971.09;5035006;28;20052;-80
2021/09/08 03:30:32;;;;;;;8.13;6.85;;;;;;;21.78;55.47;101951.81;5003086;28;20042;-80
2021/09/08 03:32:57;;;;;;;7.50;6.68;;;;;;;21.64;55.12;101934.28;5019585;28;20026;-80
2021/09/08 03:35:23;;;;;;;10.55;7.60;;;;;;;21.73;55.27;101947.41;5016972;28;20092;-84
2021/09/08 03:37:48;;;;;;;8.73;7.75;;;;;;;21.59;55.22;101924.63;5003076;28;20041;-81
2021/09/08 03:40:14;;;;;;;7.32;6.57;;;;;;;21.86;55.23;101969.34;5018670;28;20041;-80
2021/09/08 03:42:40;;;;;;;9.70;7.82;;;;;;;21.87;55.02;101968.47;5020516;28;20021;-84
2021/09/08 03:45:08;;;;;;;8.88;7.47;;;;;;;21.83;55.07;101961.44;5021047;28;20030;-88
2021/09/08 03:47:33;;;;;;;9.90;8.15;;;;;;;21.81;55.45;101955.31;5020993;28;20025;-80
2021/09/08 03:49:59;;;;;;;8.27;7.28;;;;;;;21.72;55.01;101935.13;5003745;28;20038;-80
2021/09/08 03:52:24;;;;;;;7.10;6.40;;;;;;;21.74;54.90;101937.78;5020887;28;20121;-80
2021/09/08 03:54:49;;;;;;;11.35;8.13;;;;;;;21.80;54.91;101945.69;4986782;28;20025;-80
2021/09/08 03:57:15;;;;;;;10.02;8.27;;;;;;;21.72;54.93;101929.88;5019289;28;20057;-81
2021/09/08 03:59:40;;;;;;;8.65;7.22;;;;;;;21.85;54.86;101945.66;5002565;28;20507;-80
2021/09/08 04:02:06;;;;;;;9.38;8.00;;;;;;;21.74;54.71;101940.41;5003036;28;20026;-79
2021/09/08 04:04:31;;;;;;;7.65;6.75;;;;;;;21.85;54.98;101946.53;4984480;28;20036;-80
2021/09/08 04:06:57;;;;;;;7.88;7.07;;;;;;;21.84;55.57;101944.78;5022814;28;20037;-81
2021/09/08 04:09:46;;;;;;;10.40;6.85;;;;;;;21.82;55.34;101940.38;5024395;28;20032;-88
2021/09/08 04:12:11;;;;;;;8.13;7.30;;;;;;;21.66;55.58;101906.19;5022059;28;20036;-82
2021/09/08 04:14:36;;;;;;;7.03;6.32;;;;;;;21.88;55.55;101935.13;5018460;28;20123;-78
2021/09/08 04:17:02;;;;;;;8.67;6.73;;;;;;;21.85;55.63;101924.59;5018522;28;20033;-81
2021/09/08 04:19:27;;;;;;;9.55;7.18;;;;;;;21.87;55.56;101928.09;5016137;28;20418;-81
2021/09/08 04:21:53;;;;;;;6.97;6.28;;;;;;;21.91;55.42;101937.75;4999718;28;20045;-82
2021/09/08 04:24:18;;;;;;;8.68;6.80;;;;;;;21.88;55.67;101929.84;4999462;28;20053;-79
2021/09/08 04:26:43;;;;;;;8.20;7.40;;;;;;;21.80;55.46;101916.72;4967282;28;20033;-81
2021/09/08 04:29:09;;;;;;;8.10;7.07;;;;;;;21.88;55.47;101929.84;5015468;28;20473;-79
2021/09/08 04:31:34;;;;;;;7.65;6.82;;;;;;;21.89;55.55;101935.13;4999750;28;20026;-81
2021/09/08 04:33:59;;;;;;;7.95;7.07;;;;;;;21.90;55.65;101939.50;4983281;28;20057;-80
2021/09/08 04:36:25;;;;;;;8.50;7.60;;;;;;;21.91;55.67;101937.75;4967564;28;20028;-81
2021/09/08 04:38:50;;;;;;;8.30;6.85;;;;;;;21.83;55.74;101919.31;4987169;28;20084;-81
2021/09/08 04:41:16;;;;;;;7.68;6.38;;;;;;;21.95;55.62;101934.22;5004947;28;20076;-80
2021/09/08 04:49:40;;;;;;;9.07;6.90;;;;;;;21.69;55.77;101889.50;5723614;22;20072;-92
2021/09/08 04:52:07;;;;;;;9.07;6.07;;;;;;;21.71;55.80;101880.72;5020125;28;20041;-81
2021/09/08 04:54:32;;;;;;;8.40;7.43;;;;;;;21.90;55.81;101923.72;5010401;28;20037;-80
2021/09/08 04:56:58;;;;;;;7.18;6.47;;;;;;;21.72;55.78;101890.38;5029708;28;20040;-88
2021/09/08 04:59:23;;;;;;;7.10;6.35;;;;;;;21.78;55.90;101893.88;5047869;28;20044;-81
2021/09/08 05:01:48;;;;;;;13.32;7.35;;;;;;;21.72;55.98;101881.59;5024574;28;20038;-80
2021/09/08 05:04:14;;;;;;;8.82;6.05;;;;;;;21.80;55.92;101897.41;5026495;28;20021;-81
2021/09/08 05:06:39;;;;;;;8.55;6.95;;;;;;;21.89;55.62;101915.81;5022096;28;20061;-78
2021/09/08 05:09:05;;;;;;;7.82;6.65;;;;;;;21.87;55.68;101912.28;5023177;28;20029;-80
2021/09/08 05:11:30;;;;;;;9.40;7.47;;;;;;;21.89;55.28;101916.69;5025786;28;20033;-80
2021/09/08 05:13:55;;;;;;;7.78;6.65;;;;;;;21.80;55.71;101897.41;5010946;28;20101;-81
2021/09/08 05:16:21;;;;;;;7.35;5.93;;;;;;;21.87;55.63;101913.19;5010310;28;20132;-84
2021/09/08 05:18:46;;;;;;;10.68;6.57;;;;;;;21.87;55.66;101910.53;5009474;28;20041;-90
2021/09/08 05:21:12;;;;;;;9.75;7.57;;;;;;;21.72;55.25;101886.88;5012765;28;20060;-79
2021/09/08 05:23:38;;;;;;;9.65;8.50;;;;;;;21.75;55.25;101892.13;5001085;28;20022;-81
2021/09/08 05:26:05;;;;;;;12.10;8.90;;;;;;;21.85;55.18;101914.06;4985539;28;20408;-79
2021/09/08 05:28:32;;;;;;;9.43;7.22;;;;;;;21.79;55.17;101900.91;4985850;28;20030;-80
2021/09/08 05:34:05;;;;;;;11.32;8.50;;;;;;;21.74;54.50;101914.06;5024638;28;20095;-85
2021/09/08 05:36:31;;;;;;;16.40;10.55;;;;;;;21.51;53.72;101881.66;4971641;28;20058;-82
2021/09/08 05:39:01;;;;;;;16.52;12.73;;;;;;;21.16;53.13;101871.09;4975744;28;20026;-87
2021/09/08 05:41:27;;;;;;;15.43;10.50;;;;;;;21.15;54.08;101908.81;5018655;28;20026;-79
2021/09/08 05:43:52;;;;;;;15.77;11.93;;;;;;;21.03;53.98;101897.38;5001264;28;20041;-78
2021/09/08 05:46:17;;;;;;;16.73;13.75;;;;;;;21.01;53.74;101911.41;4969662;28;20026;-81
2021/09/08 05:48:43;;;;;;;15.23;11.73;;;;;;;21.03;53.93;101902.63;4985491;28;20072;-77
2021/09/08 05:51:08;;;;;;;17.92;11.55;;;;;;;21.12;53.74;101887.75;5006611;28;20069;-80
2021/09/08 05:53:53;;;;;;;20.35;12.73;;;;;;;21.36;53.23;101909.72;5030301;28;20034;-83
2021/09/08 05:56:57;;;;;;;14.65;11.07;;;;;;;21.42;53.26;101907.97;5011473;28;20029;-91
2021/09/08 05:59:23;;;;;;;14.82;12.45;;;;;;;21.29;53.16;101891.31;5007207;28;20096;-81
2021/09/08 06:01:48;;;;;;;18.38;11.80;;;;;;;21.26;53.13;101878.16;5004009;28;20491;-82
2021/09/08 06:04:17;;;;;;;18.80;12.32;;;;;;;21.26;52.72;101880.78;4987446;28;20030;-82
2021/09/08 06:06:42;;;;;;;17.80;13.65;;;;;;;21.22;52.82;101876.38;5006804;28;20033;-81
2021/09/08 06:09:11;;;;;;;17.52;11.95;;;;;;;21.25;52.69;101890.44;4988568;28;20030;-83
2021/09/08 06:11:54;;;;;;;15.77;12.93;;;;;;;21.27;52.65;101878.16;4972632;28;20034;-91
2021/09/08 06:14:19;;;;;;;20.50;13.18;;;;;;;21.17;52.91;101868.44;4991662;28;20140;-80
2021/09/08 06:20:51;;;;;;;14.63;12.55;;;;;;;21.62;52.10;101891.28;5033264;28;20037;-91
2021/09/08 06:23:19;;;;;;;14.80;11.80;;;;;;;21.91;50.98;101864.00;5013492;28;20037;-89
2021/09/08 06:25:53;;;;;;;17.77;13.10;;;;;;;21.42;51.89;101845.69;4989769;28;20038;-87
2021/09/08 06:38:02;;;;;;;15.73;13.05;;;;;;;21.35;52.10;101859.72;4921847;29;20038;-83
2021/09/08 06:40:28;;;;;;;18.73;13.13;;;;;;;21.44;52.17;101866.72;4940280;29;20063;-79
2021/09/08 06:42:53;;;;;;;21.45;14.45;;;;;;;21.36;52.04;101850.94;4938114;29;20051;-82
2021/09/08 06:45:19;;;;;;;25.42;14.43;;;;;;;21.36;52.04;101845.69;4924880;29;20050;-85
2021/09/08 06:47:54;;;;;;;16.92;13.27;;;;;;;21.48;51.77;101866.72;4939032;29;20033;-87
2021/09/08 06:50:57;;;;;;;20.10;13.52;;;;;;;21.63;52.11;101887.78;4944211;29;20047;-93
2021/09/08 06:53:29;;;;;;;19.33;13.80;;;;;;;21.52;52.11;101859.72;4927189;29;20035;-83
2021/09/08 06:55:54;;;;;;;19.63;13.43;;;;;;;21.48;51.99;101839.53;4938951;29;20132;-83
2021/09/08 06:58:22;;;;;;;19.05;13.90;;;;;;;21.56;52.11;101851.78;4907900;29;20039;-87
2021/09/08 07:00:49;;;;;;;24.27;16.08;;;;;;;21.03;52.49;101834.25;4924698;29;20040;-83
2021/09/08 07:03:14;;;;;;;21.95;16.50;;;;;;;20.61;53.74;101815.84;4948478;29;20058;-90
2021/09/08 07:05:40;;;;;;;23.17;16.30;;;;;;;20.57;53.76;101833.34;4931659;29;20032;-82
2021/09/08 07:08:07;;;;;;;21.88;17.02;;;;;;;20.45;54.14;101812.28;4925029;29;20023;-80
2021/09/08 07:10:32;;;;;;;20.73;17.40;;;;;;;20.76;53.98;101851.78;4940719;29;20062;-80
2021/09/08 07:12:58;;;;;;;23.02;16.85;;;;;;;20.76;54.25;101857.03;4940058;29;20518;-81
2021/09/08 07:15:23;;;;;;;21.33;16.33;;;;;;;20.63;53.96;101830.75;4925123;29;20039;-83
2021/09/08 07:17:49;;;;;;;23.15;15.88;;;;;;;20.79;54.03;101854.41;4923770;29;20094;-82
2021/09/08 07:20:14;;;;;;;21.00;16.00;;;;;;;20.64;54.46;101818.47;4924502;29;20403;-82
2021/09/08 07:22:40;;;;;;;20.38;16.30;;;;;;;20.72;54.14;101855.28;4923214;29;20118;-81
2021/09/08 07:25:05;;;;;;;22.85;15.43;;;;;;;20.78;54.36;101852.63;4921197;29;20066;-82
2021/09/08 07:27:33;;;;;;;23.15;15.45;;;;;;;20.90;53.88;101850.91;4945810;28;20119;-83
2021/09/08 07:29:59;;;;;;;20.70;15.55;;;;;;;20.92;53.52;101837.75;4982973;28;20096;-83
2021/09/08 07:32:24;;;;;;;21.08;15.85;;;;;;;21.09;53.34;101851.81;4997624;28;20025;-81
2021/09/08 07:34:50;;;;;;;17.42;15.27;;;;;;;20.64;54.00;101802.72;4965127;28;20113;-83
2021/09/08 07:37:16;;;;;;;26.73;15.45;;;;;;;20.85;53.62;101830.75;4982339;28;20042;-81
2021/09/08 07:39:42;;;;;;;21.48;17.88;;;;;;;20.93;53.44;101843.03;4985634;28;20033;-84
2021/09/08 07:42:08;;;;;;;17.33;15.32;;;;;;;20.94;53.40;101831.63;4982354;28;20380;-82
2021/09/08 07:44:33;;;;;;;23.63;14.82;;;;;;;20.98;53.70;101835.16;4981568;28;20476;-82
2021/09/08 07:46:59;;;;;;;17.73;13.50;;;;;;;21.21;52.89;101843.06;4966203;28;20034;-80
2021/09/08 07:49:24;;;;;;;22.10;14.93;;;;;;;21.20;53.12;101838.69;4965839;28;20061;-81
2021/09/08 07:51:50;;;;;;;19.75;13.88;;;;;;;21.28;52.98;101852.72;4998060;28;20476;-81
2021/09/08 07:54:15;;;;;;;18.15;14.45;;;;;;;21.22;53.00;101836.94;4981698;28;20029;-81
2021/09/08 07:56:41;;;;;;;20.95;15.02;;;;;;;21.35;53.01;101841.31;4965456;28;20108;-79
2021/09/08 07:59:08;;;;;;;21.75;14.07;;;;;;;21.40;53.03;101842.19;4965179;28;20030;-84
2021/09/08 08:01:35;;;;;;;32.80;13.80;;;;;;;21.39;52.81;101851.84;4997587;28;20040;-81
2021/09/08 08:04:00;;;;;;;19.02;14.20;;;;;;;21.30;52.90;101825.50;4981329;28;20121;-81
2021/09/08 08:06:26;;;;;;;18.20;14.02;;;;;;;21.34;53.03;101831.66;4997804;28;20184;-80
2021/09/08 08:08:54;;;;;;;19.80;13.93;;;;;;;21.48;52.53;101837.78;4982240;28;20104;-79
2021/09/08 08:11:19;;;;;;;14.35;12.52;;;;;;;21.42;52.62;101835.19;4982298;28;20022;-79
2021/09/08 08:13:47;;;;;;;17.55;13.02;;;;;;;21.53;52.61;101838.66;5000437;28;20096;-79
2021/09/08 08:16:14;;;;;;;17.60;14.43;;;;;;;21.60;52.26;101836.88;4970072;28;20022;-80
2021/09/08 08:18:39;;;;;;;17.70;15.30;;;;;;;21.65;52.36;101843.91;4985845;28;20120;-79
2021/09/08 08:21:05;;;;;;;16.55;12.75;;;;;;;21.49;52.05;101814.97;4985159;28;20125;-80
2021/09/08 08:23:32;;;;;;;18.55;14.63;;;;;;;21.60;51.76;101837.75;5002636;28;20479;-79
2021/09/08 08:25:57;;;;;;;17.00;13.18;;;;;;;21.57;52.14;101840.38;5000996;28;20026;-80
2021/09/08 08:28:26;;;;;;;16.98;14.48;;;;;;;21.59;51.94;101812.31;4969065;28;20080;-79
2021/09/08 08:30:52;;;;;;;14.15;12.18;;;;;;;21.77;51.74;101835.09;4969350;28;20559;-80
2021/09/08 08:33:18;;;;;;;21.45;14.20;;;;;;;21.63;51.93;101818.44;5002100;28;20064;-85
2021/09/08 08:35:44;;;;;;;18.13;14.38;;;;;;;21.85;51.83;101829.78;4971241;28;20127;-86
2021/09/08 08:38:09;;;;;;;18.65;13.88;;;;;;;21.83;51.77;101826.28;4986173;28;20473;-81
2021/09/08 08:40:35;;;;;;;17.00;13.10;;;;;;;21.86;51.65;101826.28;4986406;28;20034;-82
2021/09/08 08:43:02;;;;;;;17.30;12.35;;;;;;;21.94;51.85;101828.00;5002460;28;20022;-80
2021/09/08 08:45:30;;;;;;;14.50;12.00;;;;;;;22.05;51.18;101826.25;4985918;28;20029;-80
2021/09/08 08:47:57;;;;;;;17.92;13.07;;;;;;;21.90;51.35;101799.94;5003284;28;20033;-90
2021/09/08 08:50:25;;;;;;;20.40;13.10;;;;;;;22.01;51.63;101818.34;5004748;28;20114;-80
2021/09/08 08:52:51;;;;;;;15.40;11.73;;;;;;;21.99;51.68;101820.13;4987219;28;20120;-80
2021/09/08 08:55:19;;;;;;;16.45;12.65;;;;;;;22.00;51.58;101808.69;5000783;28;20038;-82
2021/09/08 08:57:48;;;;;;;15.20;11.80;;;;;;;21.98;51.30;101803.41;5000374;28;20474;-80
2021/09/08 09:00:21;;;;;;;14.52;12.05;;;;;;;21.99;51.46;101822.75;4968766;28;20033;-79
2021/09/08 09:02:49;;;;;;;22.67;13.50;;;;;;;22.09;51.38;101821.81;4985319;28;20559;-80
2021/09/08 09:05:37;;;;;;;20.20;13.43;;;;;;;22.16;51.95;101815.66;5000044;28;20095;-81
2021/09/08 09:08:05;;;;;;;16.88;12.25;;;;;;;22.18;51.63;101819.16;5000199;28;20028;-79
2021/09/08 09:10:30;;;;;;;14.32;11.88;;;;;;;22.27;51.52;101811.22;5000668;28;20029;-80
2021/09/08 09:12:56;;;;;;;17.67;12.55;;;;;;;22.14;51.66;101798.97;4983629;28;20101;-81
2021/09/08 09:15:23;;;;;;;15.27;12.55;;;;;;;22.33;51.84;101818.22;4984105;28;20034;-79
2021/09/08 09:17:50;;;;;;;19.45;13.38;;;;;;;22.20;51.62;101800.72;4983655;28;20029;-80
2021/09/08 09:20:18;;;;;;;15.10;11.45;;;;;;;22.31;51.68;101826.13;4983814;28;20034;-79
2021/09/08 09:22:50;;;;;;;14.45;11.82;;;;;;;22.40;51.71;101810.25;4999661;28;20029;-79
2021/09/08 09:25:19;;;;;;;16.38;10.60;;;;;;;22.40;51.43;101815.53;4998357;28;20553;-80
2021/09/08 09:27:51;;;;;;;14.50;11.32;;;;;;;22.51;51.30;101801.41;4999997;28;20037;-80
2021/09/08 09:30:24;;;;;;;13.35;11.05;;;;;;;22.46;51.10;101802.28;4999472;28;20060;-81
2021/09/08 09:32:51;;;;;;;16.07;12.23;;;;;;;22.55;51.22;101811.91;4999102;28;20109;-80
2021/09/08 09:35:20;;;;;;;14.80;10.40;;;;;;;22.43;52.06;101789.16;4999570;28;20068;-80
2021/09/08 09:37:56;;;;;;;13.52;11.32;;;;;;;22.56;50.96;101792.59;5000737;28;20088;-80
2021/09/08 09:40:35;;;;;;;13.43;10.45;;;;;;;22.59;50.73;101796.97;4984753;28;20029;-80
2021/09/08 09:43:09;;;;;;;12.77;10.50;;;;;;;22.62;50.75;101804.81;5000318;28;20476;-78
2021/09/08 09:45:38;;;;;;;13.38;11.15;;;;;;;22.61;50.34;101793.41;5000496;28;20025;-80
2021/09/08 09:48:04;;;;;;;14.57;10.60;;;;;;;22.53;50.73;101783.81;5000743;28;20129;-79
2021/09/08 09:50:30;;;;;;;12.75;10.15;;;;;;;22.61;50.66;101793.41;5000284;28;20152;-79
2021/09/08 09:52:56;;;;;;;12.55;10.18;;;;;;;22.60;50.82;101773.19;4984360;28;20109;-80
2021/09/08 09:55:24;;;;;;;12.80;10.05;;;;;;;22.63;50.45;101775.81;5000515;28;20122;-79
2021/09/08 09:57:50;;;;;;;14.55;10.75;;;;;;;22.82;50.50;101796.81;4984518;28;20124;-80
2021/09/08 10:00:17;;;;;;;15.02;11.48;;;;;;;22.78;50.32;101791.56;4968446;28;20064;-81
2021/09/08 10:02:44;;;;;;;12.07;9.20;;;;;;;22.69;50.25;101782.81;5000304;28;20104;-83
2021/09/08 10:05:10;;;;;;;14.95;9.93;;;;;;;22.71;50.55;101788.97;5000814;28;20029;-80
2021/09/08 10:07:36;;;;;;;13.90;10.52;;;;;;;22.72;50.61;101790.72;4985099;28;20531;-79
2021/09/08 10:10:19;;;;;;;15.63;11.23;;;;;;;22.63;50.91;101789.00;4984916;28;20030;-81
2021/09/08 10:12:54;;;;;;;10.73;9.10;;;;;;;22.45;51.09;101768.94;5000955;28;20419;-79
2021/09/08 10:15:21;;;;;;;13.63;9.90;;;;;;;22.42;51.64;101760.16;5000571;28;20103;-79
2021/09/08 10:17:48;;;;;;;16.23;9.98;;;;;;;22.47;51.81;101779.44;5000225;28;20022;-79
2021/09/08 10:20:23;;;;;;;12.38;10.43;;;;;;;22.29;51.99;101754.09;5000625;28;20022;-79
2021/09/08 10:22:50;;;;;;;14.50;10.43;;;;;;;22.26;52.22;101748.84;4984201;28;20022;-80
2021/09/08 10:25:21;;;;;;;11.63;9.50;;;;;;;22.33;52.14;101761.09;4983218;28;20034;-80
2021/09/08 10:27:52;;;;;;;11.85;9.45;;;;;;;22.36;52.33;101765.47;5000695;28;20113;-79
2021/09/08 10:30:19;;;;;;;10.98;8.95;;;;;;;22.32;52.57;101759.38;4983142;28;20025;-79
2021/09/08 10:32:44;;;;;;;13.77;10.15;;;;;;;22.30;52.58;101750.59;4999723;28;20084;-79
2021/09/08 10:35:13;;;;;;;12.27;9.48;;;;;;;22.25;52.68;101746.22;4984114;28;20029;-82
2021/09/08 10:37:44;;;;;;;12.52;10.43;;;;;;;22.25;52.80;101735.69;4999807;28;20037;-79
2021/09/08 10:40:10;;;;;;;11.35;9.18;;;;;;;22.26;52.84;101727.75;4998381;28;20472;-80
2021/09/08 10:42:47;;;;;;;11.65;10.52;;;;;;;22.30;52.88;101731.25;4998921;28;20049;-80
2021/09/08 10:45:22;;;;;;;14.63;10.05;;;;;;;22.32;53.20;101734.78;4998801;28;20049;-80
2021/09/08 10:47:48;;;;;;;12.00;10.75;;;;;;;22.33;53.05;101737.38;4999124;28;20025;-79
2021/09/08 10:50:13;;;;;;;13.23;10.02;;;;;;;22.32;52.98;101734.78;4998762;28;20116;-78
2021/09/08 10:52:42;;;;;;;12.55;10.50;;;;;;;22.17;52.98;101706.75;4966083;28;20476;-79
2021/09/08 10:55:12;;;;;;;11.63;9.75;;;;;;;22.32;53.29;101733.00;4998871;28;20083;-79
2021/09/08 10:57:40;;;;;;;11.25;10.07;;;;;;;22.32;53.34;101718.97;4998073;28;20026;-80
2021/09/08 11:00:11;;;;;;;14.30;11.25;;;;;;;22.28;53.34;101709.31;4999283;28;20387;-79
2021/09/08 11:02:40;;;;;;;11.43;9.98;;;;;;;22.16;53.42;101680.41;4984289;28;20048;-81
2021/09/08 11:05:06;;;;;;;12.40;11.00;;;;;;;22.21;53.41;101700.56;4999766;28;20021;-78
2021/09/08 11:07:37;;;;;;;14.45;11.60;;;;;;;22.12;53.48;101676.94;5000202;28;20121;-79
2021/09/08 11:10:03;;;;;;;13.52;12.13;;;;;;;22.27;53.45;101697.03;5000748;28;20037;-81
2021/09/08 11:12:46;;;;;;;14.77;11.40;;;;;;;22.24;53.45;101687.38;4999833;28;20021;-78
2021/09/08 11:15:12;;;;;;;11.68;9.88;;;;;;;22.29;53.67;101695.25;5000053;28;20065;-78
2021/09/08 11:17:39;;;;;;;14.75;10.90;;;;;;;22.16;53.58;101676.03;5000951;28;20108;-80
2021/09/08 11:20:06;;;;;;;11.07;9.73;;;;;;;22.26;53.72;101690.88;4983941;28;20034;-80
2021/09/08 11:22:32;;;;;;;10.88;9.15;;;;;;;22.13;53.83;101668.13;4983302;28;20120;-81
2021/09/08 11:25:04;;;;;;;11.15;10.00;;;;;;;22.07;53.71;101658.50;4984704;28;20056;-82
2021/09/08 11:27:30;;;;;;;15.98;11.77;;;;;;;22.33;53.80;101704.91;4999700;28;20487;-80
2021/09/08 11:30:12;;;;;;;11.80;10.57;;;;;;;22.21;53.84;101675.97;4999930;28;20053;-79
2021/09/08 11:33:03;;;;;;;12.02;10.45;;;;;;;22.32;53.81;101687.34;4999386;28;20022;-78
2021/09/08 11:35:33;;;;;;;12.45;11.02;;;;;;;22.22;54.28;101675.09;4997192;28;20033;-82
2021/09/08 11:37:58;;;;;;;13.52;10.73;;;;;;;22.27;54.18;101676.81;4998325;28;20079;-79
2021/09/08 11:40:24;;;;;;;12.88;10.13;;;;;;;22.18;54.00;101662.84;4965748;28;20029;-79